Time;durP1;ratioP1;P1;durP2;ratioP2;P2;SDS_P1;SDS_P2;PMS_P1;PMS_P2;Temp;Humidity;BMP_temperature;BMP_pressure;BME280_temperature;BME280_humidity;BME280_pressure;Samples;Min_cycle;Max_cycle;Signal;HPM_P1;HPM_P2
2022/01/07 00:02:04;;;;;;;;;;;22.70;52.90;;;;;;5077654;28;1019;-43
2022/01/07 00:04:31;;;;;;;;;;;22.70;53.00;;;;;;5080230;28;1043;-39
2022/01/07 00:06:58;;;;;;;;;;;22.70;53.00;;;;;;5079952;28;951;-40
2022/01/07 00:09:24;;;;;;;;;;;22.70;52.90;;;;;;5079826;28;1906;-39
2022/01/07 00:11:51;;;;;;;;;;;22.70;52.90;;;;;;5079967;28;999;-39
2022/01/07 00:14:18;;;;;;;;;;;22.70;52.90;;;;;;5080047;28;927;-40
2022/01/07 00:16:45;;;;;;;;;;;22.70;52.90;;;;;;5078142;28;995;-40
2022/01/07 00:19:14;;;;;;;;;;;22.70;52.90;;;;;;5079761;28;984;-40
2022/01/07 00:21:41;;;;;;;;;;;22.70;52.90;;;;;;5080229;28;1052;-41
2022/01/07 00:24:08;;;;;;;;;;;22.70;52.90;;;;;;5079410;28;1042;-42
2022/01/07 00:26:35;;;;;;;;;;;22.70;52.90;;;;;;5079218;28;933;-40
2022/01/07 00:29:01;;;;;;;;;;;22.70;53.10;;;;;;5079980;28;1979;-39
2022/01/07 00:31:28;;;;;;;;;;;22.60;52.80;;;;;;5080325;28;1003;-40
2022/01/07 00:33:55;;;;;;;;;;;22.70;53.00;;;;;;5079914;28;1018;-41
2022/01/07 00:36:23;;;;;;;;;;;22.70;53.00;;;;;;5080548;28;995;-40
2022/01/07 00:38:49;;;;;;;;;;;22.60;53.00;;;;;;5080288;28;1261;-41
2022/01/07 00:41:16;;;;;;;;;;;22.60;53.00;;;;;;5080446;28;908;-40
2022/01/07 00:43:43;;;;;;;;;;;22.60;53.00;;;;;;5079667;28;1010;-40
2022/01/07 00:46:10;;;;;;;;;;;22.60;53.10;;;;;;5080032;28;1139;-42
2022/01/07 00:48:36;;;;;;;;;;;22.60;53.10;;;;;;5080337;28;1965;-40
2022/01/07 00:51:03;;;;;;;;;;;22.60;53.00;;;;;;5079918;28;933;-40
2022/01/07 00:53:31;;;;;;;;;;;22.60;53.10;;;;;;5079505;28;987;-37
2022/01/07 00:55:58;;;;;;;;;;;22.60;53.20;;;;;;5078975;28;1027;-37
2022/01/07 00:58:25;;;;;;;;;;;22.60;53.00;;;;;;5080154;28;948;-37
2022/01/07 01:00:51;;;;;;;;;;;22.60;53.00;;;;;;5079849;28;1398;-37
2022/01/07 01:03:18;;;;;;;;;;;22.60;53.00;;;;;;5079881;28;1020;-38
2022/01/07 01:05:46;;;;;;;;;;;22.60;53.00;;;;;;5080086;28;936;-38
2022/01/07 01:08:13;;;;;;;;;;;22.60;53.00;;;;;;5079328;28;1918;-37
2022/01/07 01:10:41;;;;;;;;;;;22.60;53.00;;;;;;5079841;28;993;-38
2022/01/07 01:13:07;;;;;;;;;;;22.60;53.10;;;;;;5079298;28;896;-39
2022/01/07 01:15:34;;;;;;;;;;;22.50;53.10;;;;;;5079684;28;988;-37
2022/01/07 01:18:01;;;;;;;;;;;22.50;53.10;;;;;;5080004;28;995;-38
2022/01/07 01:20:28;;;;;;;;;;;22.50;53.10;;;;;;5079602;28;1003;-38
2022/01/07 01:22:55;;;;;;;;;;;22.50;53.20;;;;;;5079749;28;975;-37
2022/01/07 01:25:22;;;;;;;;;;;22.50;53.30;;;;;;5079529;28;999;-37
2022/01/07 01:27:50;;;;;;;;;;;22.50;53.20;;;;;;5079553;28;1897;-37
2022/01/07 01:30:18;;;;;;;;;;;22.50;53.20;;;;;;5079085;28;952;-37
2022/01/07 01:32:45;;;;;;;;;;;22.50;53.30;;;;;;5079554;28;940;-39
2022/01/07 01:35:12;;;;;;;;;;;22.50;53.20;;;;;;5079042;28;1059;-39
2022/01/07 01:37:39;;;;;;;;;;;22.50;53.20;;;;;;5079159;28;1236;-38
2022/01/07 01:40:06;;;;;;;;;;;22.50;53.20;;;;;;5079524;28;999;-37
2022/01/07 01:42:33;;;;;;;;;;;22.50;53.20;;;;;;5079373;28;1000;-37
2022/01/07 01:45:02;;;;;;;;;;;22.50;53.20;;;;;;5079208;28;1020;-38
2022/01/07 01:47:28;;;;;;;;;;;22.50;53.30;;;;;;5079138;28;969;-37
2022/01/07 01:49:55;;;;;;;;;;;22.50;53.30;;;;;;5079209;28;1996;-37
2022/01/07 01:52:22;;;;;;;;;;;22.50;53.30;;;;;;5079373;28;991;-39
2022/01/07 01:54:48;;;;;;;;;;;22.50;53.30;;;;;;5079100;28;896;-38
2022/01/07 01:57:15;;;;;;;;;;;22.50;53.20;;;;;;5078668;28;940;-37
2022/01/07 01:59:42;;;;;;;;;;;22.50;53.20;;;;;;5078455;28;1012;-37
2022/01/07 02:02:10;;;;;;;;;;;22.50;53.20;;;;;;5078178;28;1022;-40
2022/01/07 02:04:39;;;;;;;;;;;22.50;53.30;;;;;;5078729;28;936;-41
2022/01/07 02:07:07;;;;;;;;;;;22.40;53.20;;;;;;5078517;28;999;-42
2022/01/07 02:09:35;;;;;;;;;;;22.50;53.30;;;;;;5078733;28;1987;-41
2022/01/07 02:12:03;;;;;;;;;;;22.50;53.20;;;;;;5078384;28;1016;-40
2022/01/07 02:14:30;;;;;;;;;;;22.40;53.20;;;;;;5078750;28;995;-43
2022/01/07 02:17:03;;;;;;;;;;;22.40;53.20;;;;;;5078996;28;944;-42
2022/01/07 02:19:32;;;;;;;;;;;22.40;53.20;;;;;;5078919;28;1012;-42
2022/01/07 02:21:59;;;;;;;;;;;22.40;53.20;;;;;;5079095;28;997;-43
2022/01/07 02:24:25;;;;;;;;;;;22.40;53.10;;;;;;5078340;28;932;-42
2022/01/07 02:26:53;;;;;;;;;;;22.40;53.10;;;;;;5078505;28;928;-42
2022/01/07 02:29:20;;;;;;;;;;;22.40;53.20;;;;;;5078616;28;1902;-41
2022/01/07 02:31:46;;;;;;;;;;;22.40;53.20;;;;;;5078595;28;928;-40
2022/01/07 02:34:13;;;;;;;;;;;22.40;53.20;;;;;;5078549;28;998;-44
2022/01/07 02:36:41;;;;;;;;;;;22.40;53.30;;;;;;5078544;28;1285;-42
2022/01/07 02:39:07;;;;;;;;;;;22.40;53.40;;;;;;5078644;28;1019;-40
2022/01/07 02:41:34;;;;;;;;;;;22.40;53.30;;;;;;5078215;28;1008;-41
2022/01/07 02:44:01;;;;;;;;;;;22.40;53.30;;;;;;5078634;28;1018;-42
2022/01/07 02:46:28;;;;;;;;;;;22.40;53.30;;;;;;5078081;28;933;-41
2022/01/07 02:48:55;;;;;;;;;;;22.40;53.30;;;;;;5078246;28;1902;-42
2022/01/07 02:51:21;;;;;;;;;;;22.40;53.30;;;;;;5079001;28;1024;-44
2022/01/07 02:53:49;;;;;;;;;;;22.40;53.20;;;;;;5078364;28;977;-42
2022/01/07 02:56:17;;;;;;;;;;;22.40;53.30;;;;;;5078341;28;936;-41
2022/01/07 02:58:44;;;;;;;;;;;22.40;53.20;;;;;;5078490;28;1008;-42
2022/01/07 03:01:11;;;;;;;;;;;22.40;53.30;;;;;;5078355;28;1030;-43
2022/01/07 03:03:38;;;;;;;;;;;22.40;53.30;;;;;;5078318;28;982;-42
2022/01/07 03:06:04;;;;;;;;;;;22.40;53.30;;;;;;5078356;28;929;-39
2022/01/07 03:08:31;;;;;;;;;;;22.40;53.30;;;;;;5078077;28;1906;-40
2022/01/07 03:10:59;;;;;;;;;;;22.40;53.40;;;;;;5078274;28;912;-39
2022/01/07 03:13:26;;;;;;;;;;;22.40;53.30;;;;;;5077989;28;1016;-39
2022/01/07 03:15:52;;;;;;;;;;;22.40;53.30;;;;;;5078610;28;979;-42
2022/01/07 03:18:19;;;;;;;;;;;22.30;53.20;;;;;;5078283;28;1005;-40
2022/01/07 03:20:46;;;;;;;;;;;22.30;53.30;;;;;;5077818;28;1007;-39
2022/01/07 03:23:13;;;;;;;;;;;22.30;53.20;;;;;;5077985;28;1043;-40
2022/01/07 03:25:40;;;;;;;;;;;22.30;53.30;;;;;;5077754;28;1067;-42
2022/01/07 03:28:10;;;;;;;;;;;22.30;53.20;;;;;;5077853;28;944;-39
2022/01/07 03:30:37;;;;;;;;;;;22.30;53.30;;;;;;5077617;28;1013;-39
2022/01/07 03:36:07;;;;;;;;;;;22.30;53.30;;;;;;5077520;28;602;-40
2022/01/07 03:38:34;;;;;;;;;;;22.30;53.20;;;;;;5081006;28;1155;-39
2022/01/07 03:41:02;;;;;;;;;;;22.30;53.20;;;;;;5081969;28;1030;-39
2022/01/07 03:43:30;;;;;;;;;;;22.30;53.20;;;;;;5081689;28;940;-42
2022/01/07 03:45:57;;;;;;;;;;;22.30;53.20;;;;;;5080081;28;976;-39
2022/01/07 03:48:23;;;;;;;;;;;22.30;53.30;;;;;;5081661;28;1910;-40
2022/01/07 03:50:51;;;;;;;;;;;22.30;53.30;;;;;;5081385;28;1099;-39
2022/01/07 03:53:17;;;;;;;;;;;22.30;53.30;;;;;;5081385;28;1022;-42
2022/01/07 03:55:44;;;;;;;;;;;22.30;54.40;;;;;;5081434;28;928;-39
2022/01/07 03:58:11;;;;;;;;;;;22.30;53.30;;;;;;5081403;28;1019;-39
2022/01/07 04:00:41;;;;;;;;;;;22.30;53.30;;;;;;5081066;28;1015;-40
2022/01/07 04:03:10;;;;;;;;;;;22.30;53.30;;;;;;5081702;28;1086;-39
2022/01/07 04:05:37;;;;;;;;;;;22.30;53.20;;;;;;5081196;28;959;-39
2022/01/07 04:08:04;;;;;;;;;;;22.30;53.20;;;;;;5081088;28;985;-39
2022/01/07 04:10:31;;;;;;;;;;;22.30;53.30;;;;;;5081008;28;1898;-42
2022/01/07 04:12:58;;;;;;;;;;;22.30;53.30;;;;;;5080620;28;1017;-41
2022/01/07 04:15:24;;;;;;;;;;;22.30;53.30;;;;;;5080995;28;1008;-40
2022/01/07 04:17:53;;;;;;;;;;;22.30;53.30;;;;;;5081125;28;972;-39
2022/01/07 04:20:21;;;;;;;;;;;22.30;53.20;;;;;;5080069;28;1008;-41
2022/01/07 04:22:48;;;;;;;;;;;22.30;53.20;;;;;;5081018;28;996;-44
2022/01/07 04:25:17;;;;;;;;;;;22.30;53.20;;;;;;5080955;28;980;-41
2022/01/07 04:27:45;;;;;;;;;;;22.40;53.20;;;;;;5080768;28;1031;-40
2022/01/07 04:30:12;;;;;;;;;;;22.40;53.00;;;;;;5080176;28;1898;-40
2022/01/07 04:32:39;;;;;;;;;;;22.40;53.10;;;;;;5080931;28;1089;-40
2022/01/07 04:35:07;;;;;;;;;;;22.30;53.10;;;;;;5080741;28;1010;-40
2022/01/07 04:37:34;;;;;;;;;;;22.40;53.00;;;;;;5079949;28;1097;-40
2022/01/07 04:40:00;;;;;;;;;;;22.40;53.10;;;;;;5080212;28;1011;-41
2022/01/07 04:42:27;;;;;;;;;;;22.40;53.00;;;;;;5080265;28;928;-41
2022/01/07 04:44:54;;;;;;;;;;;22.40;53.00;;;;;;5079867;28;1021;-42
2022/01/07 04:47:20;;;;;;;;;;;22.40;53.00;;;;;;5080076;28;1043;-41
2022/01/07 04:49:47;;;;;;;;;;;22.30;53.10;;;;;;5079935;28;1901;-44
2022/01/07 04:52:17;;;;;;;;;;;22.30;53.10;;;;;;5079960;28;1808;-40
2022/01/07 04:54:43;;;;;;;;;;;22.30;53.10;;;;;;5079972;28;944;-44
2022/01/07 04:57:10;;;;;;;;;;;22.30;53.20;;;;;;5080012;28;929;-40
2022/01/07 04:59:37;;;;;;;;;;;22.30;53.20;;;;;;5079888;28;956;-41
2022/01/07 05:02:04;;;;;;;;;;;22.30;53.20;;;;;;5079974;28;936;-44
2022/01/07 05:04:30;;;;;;;;;;;22.30;53.20;;;;;;5080088;28;995;-42
2022/01/07 05:06:57;;;;;;;;;;;22.30;53.30;;;;;;5079475;28;927;-40
2022/01/07 05:09:25;;;;;;;;;;;22.30;53.30;;;;;;5079612;28;1898;-43
2022/01/07 05:11:53;;;;;;;;;;;22.30;53.20;;;;;;5079156;28;968;-40
2022/01/07 05:14:20;;;;;;;;;;;22.30;53.20;;;;;;5079541;28;972;-42
2022/01/07 05:16:47;;;;;;;;;;;22.40;53.10;;;;;;5079198;28;936;-41
2022/01/07 05:19:14;;;;;;;;;;;22.40;53.00;;;;;;5080084;28;1027;-42
2022/01/07 05:21:41;;;;;;;;;;;22.50;52.90;;;;;;5079428;28;1051;-43
2022/01/07 05:24:07;;;;;;;;;;;22.50;53.00;;;;;;5079681;28;1186;-42
2022/01/07 05:26:36;;;;;;;;;;;22.50;52.90;;;;;;5079632;28;999;-44
2022/01/07 05:29:03;;;;;;;;;;;22.50;53.00;;;;;;5079166;28;1977;-41
2022/01/07 05:31:30;;;;;;;;;;;22.50;53.00;;;;;;5079207;28;999;-39
2022/01/07 05:33:56;;;;;;;;;;;22.50;52.90;;;;;;5079364;28;1055;-41
2022/01/07 05:36:23;;;;;;;;;;;22.50;52.80;;;;;;5079407;28;999;-40
2022/01/07 05:38:50;;;;;;;;;;;22.60;52.80;;;;;;5078911;28;1111;-40
2022/01/07 05:41:17;;;;;;;;;;;22.50;52.80;;;;;;5078864;28;1011;-40
2022/01/07 05:43:46;;;;;;;;;;;22.60;52.80;;;;;;5079009;28;1003;-42
2022/01/07 05:46:14;;;;;;;;;;;22.60;52.70;;;;;;5078713;28;1007;-43
2022/01/07 05:48:41;;;;;;;;;;;22.60;52.70;;;;;;5078573;28;1167;-40
2022/01/07 05:51:08;;;;;;;;;;;22.60;52.70;;;;;;5078390;28;1906;-40
2022/01/07 05:53:35;;;;;;;;;;;22.50;52.80;;;;;;5078120;28;936;-44
2022/01/07 05:56:02;;;;;;;;;;;22.50;52.90;;;;;;5078289;28;1083;-41
2022/01/07 05:58:28;;;;;;;;;;;22.50;52.90;;;;;;5078168;28;948;-44
2022/01/07 06:00:57;;;;;;;;;;;22.50;53.00;;;;;;5077974;28;940;-41
2022/01/07 06:03:23;;;;;;;;;;;22.40;53.00;;;;;;5078877;28;924;-43
2022/01/07 06:05:50;;;;;;;;;;;22.50;52.90;;;;;;5077567;28;1352;-42
2022/01/07 06:08:17;;;;;;;;;;;22.40;52.90;;;;;;5076690;28;975;-41
2022/01/07 06:10:43;;;;;;;;;;;22.40;52.90;;;;;;5077808;28;1897;-41
2022/01/07 06:13:10;;;;;;;;;;;22.40;53.10;;;;;;5078135;28;1004;-40
2022/01/07 06:15:37;;;;;;;;;;;22.40;53.00;;;;;;5078123;28;1813;-41
2022/01/07 06:18:05;;;;;;;;;;;22.40;53.10;;;;;;5078150;28;996;-42
2022/01/07 06:20:32;;;;;;;;;;;22.40;53.10;;;;;;5077709;28;1051;-41
2022/01/07 06:22:59;;;;;;;;;;;22.40;53.10;;;;;;5077655;28;980;-40
2022/01/07 06:25:26;;;;;;;;;;;22.40;53.00;;;;;;5077780;28;983;-41
2022/01/07 06:27:52;;;;;;;;;;;22.40;53.00;;;;;;5077689;28;994;-42
2022/01/07 06:30:19;;;;;;;;;;;22.40;53.00;;;;;;5078033;28;1906;-41
2022/01/07 06:32:46;;;;;;;;;;;22.40;53.20;;;;;;5077504;28;956;-40
2022/01/07 06:35:14;;;;;;;;;;;22.40;53.20;;;;;;5076825;28;1086;-45
2022/01/07 06:37:41;;;;;;;;;;;22.50;53.30;;;;;;5077307;28;1460;-40
2022/01/07 06:40:08;;;;;;;;;;;22.40;53.30;;;;;;5077763;28;995;-43
2022/01/07 06:42:35;;;;;;;;;;;22.40;53.30;;;;;;5077615;28;984;-41
2022/01/07 06:45:01;;;;;;;;;;;22.40;53.40;;;;;;5077498;28;941;-41
2022/01/07 06:47:28;;;;;;;;;;;22.40;53.30;;;;;;5077560;28;964;-40
2022/01/07 06:49:55;;;;;;;;;;;22.50;53.20;;;;;;5077194;28;1977;-40
2022/01/07 06:52:23;;;;;;;;;;;22.50;53.40;;;;;;5076738;28;964;-40
2022/01/07 06:54:50;;;;;;;;;;;22.60;53.50;;;;;;5077054;28;1015;-40
2022/01/07 06:57:17;;;;;;;;;;;22.60;53.40;;;;;;5076886;28;948;-38
2022/01/07 06:59:45;;;;;;;;;;;22.60;53.30;;;;;;5076606;28;1025;-39
2022/01/07 07:02:11;;;;;;;;;;;22.60;53.30;;;;;;5076753;28;968;-39
2022/01/07 07:04:39;;;;;;;;;;;22.60;53.40;;;;;;5077529;28;984;-39
2022/01/07 07:07:06;;;;;;;;;;;22.70;53.40;;;;;;5077342;28;1023;-40
2022/01/07 07:09:34;;;;;;;;;;;22.70;53.10;;;;;;5077200;28;1901;-40
2022/01/07 07:12:01;;;;;;;;;;;22.60;53.50;;;;;;5078732;28;1027;-41
2022/01/07 07:14:28;;;;;;;;;;;22.60;53.50;;;;;;5081037;28;1004;-40
2022/01/07 07:16:54;;;;;;;;;;;22.70;53.30;;;;;;5080788;28;1059;-39
2022/01/07 07:19:22;;;;;;;;;;;22.60;53.40;;;;;;5080137;28;1050;-39
2022/01/07 07:21:49;;;;;;;;;;;22.60;53.50;;;;;;5080064;28;936;-41
2022/01/07 07:24:15;;;;;;;;;;;22.60;54.60;;;;;;5080436;28;1034;-42
2022/01/07 07:26:44;;;;;;;;;;;22.60;53.50;;;;;;5080098;28;982;-42
2022/01/07 07:29:10;;;;;;;;;;;22.60;53.50;;;;;;5080060;28;1011;-41
2022/01/07 07:31:39;;;;;;;;;;;22.50;53.50;;;;;;5079619;28;1902;-40
2022/01/07 07:34:31;;;;;;;;;;;22.50;53.50;;;;;;5080069;28;993;-41
2022/01/07 07:36:57;;;;;;;;;;;22.50;53.50;;;;;;5079503;28;1147;-40
2022/01/07 07:39:24;;;;;;;;;;;22.50;53.50;;;;;;5079745;28;1172;-42
2022/01/07 07:41:52;;;;;;;;;;;22.50;53.50;;;;;;5079945;28;936;-47
2022/01/07 07:44:20;;;;;;;;;;;22.50;53.50;;;;;;5079169;28;948;-42
2022/01/07 07:46:47;;;;;;;;;;;22.50;53.50;;;;;;5079911;28;1023;-42
2022/01/07 07:49:14;;;;;;;;;;;22.50;53.50;;;;;;5079966;28;1366;-41
2022/01/07 07:51:41;;;;;;;;;;;22.40;53.40;;;;;;5079310;28;1904;-42
2022/01/07 07:54:09;;;;;;;;;;;22.40;53.50;;;;;;5079402;28;971;-41
2022/01/07 07:56:36;;;;;;;;;;;22.40;53.60;;;;;;5079344;28;968;-40
2022/01/07 07:59:04;;;;;;;;;;;22.30;53.60;;;;;;5079641;28;1026;-39
2022/01/07 08:01:32;;;;;;;;;;;22.30;53.50;;;;;;5079072;28;940;-42
2022/01/07 08:03:58;;;;;;;;;;;22.30;53.50;;;;;;5078955;28;1009;-40
2022/01/07 08:06:25;;;;;;;;;;;22.30;53.50;;;;;;5078898;28;981;-41
2022/01/07 08:08:52;;;;;;;;;;;22.30;53.50;;;;;;5078465;28;945;-40
2022/01/07 08:11:18;;;;;;;;;;;22.30;53.50;;;;;;5078063;28;2013;-38
2022/01/07 08:16:31;;;;;;;;;;;22.30;53.50;;;;;;5078660;28;676;-42
2022/01/07 08:18:58;;;;;;;;;;;22.30;53.50;;;;;;5078696;28;1475;-37
2022/01/07 08:21:26;;;;;;;;;;;22.30;53.50;;;;;;5079078;28;948;-40
2022/01/07 08:23:54;;;;;;;;;;;22.20;53.50;;;;;;5077871;28;976;-43
2022/01/07 08:26:21;;;;;;;;;;;22.20;53.40;;;;;;5079013;28;995;-43
2022/01/07 08:28:52;;;;;;;;;;;22.20;53.40;;;;;;5078897;28;963;-39
2022/01/07 08:36:54;;;;;;;;;;;22.20;53.40;;;;;;5077743;28;1210;-44
2022/01/07 08:39:22;;;;;;;;;;;22.20;53.40;;;;;;5078579;28;1055;-44
2022/01/07 08:41:49;;;;;;;;;;;22.20;53.40;;;;;;5077582;28;1016;-39
2022/01/07 08:44:16;;;;;;;;;;;22.20;53.30;;;;;;5077526;28;919;-44
2022/01/07 08:46:43;;;;;;;;;;;22.20;53.40;;;;;;5077950;28;1000;-42
2022/01/07 08:49:11;;;;;;;;;;;22.20;53.40;;;;;;5078164;28;965;-38
2022/01/07 08:51:40;;;;;;;;;;;22.20;53.40;;;;;;5077320;28;1921;-42
2022/01/07 08:54:07;;;;;;;;;;;22.10;53.20;;;;;;5077416;28;1027;-39
2022/01/07 08:56:34;;;;;;;;;;;22.10;53.20;;;;;;5078018;28;1035;-43
2022/01/07 08:59:00;;;;;;;;;;;22.20;53.30;;;;;;5077648;28;1014;-41
2022/01/07 09:01:28;;;;;;;;;;;22.10;53.30;;;;;;5077573;28;945;-39
2022/01/07 09:03:55;;;;;;;;;;;22.10;53.20;;;;;;5078141;28;1022;-39
2022/01/07 09:06:23;;;;;;;;;;;22.10;53.30;;;;;;5077214;28;885;-38
2022/01/07 09:08:50;;;;;;;;;;;22.10;53.30;;;;;;5077793;28;984;-42
2022/01/07 09:11:17;;;;;;;;;;;22.10;53.30;;;;;;5077616;28;1906;-43
2022/01/07 09:13:45;;;;;;;;;;;22.10;53.20;;;;;;5077085;28;967;-39
2022/01/07 09:16:12;;;;;;;;;;;22.10;53.30;;;;;;5077318;28;861;-38
2022/01/07 09:18:39;;;;;;;;;;;22.10;53.30;;;;;;5076972;28;955;-40
2022/01/07 09:21:06;;;;;;;;;;;22.10;53.30;;;;;;5077085;28;983;-39
2022/01/07 09:23:34;;;;;;;;;;;22.10;53.30;;;;;;5077581;28;1070;-39
2022/01/07 09:26:00;;;;;;;;;;;22.10;53.30;;;;;;5077639;28;1023;-38
2022/01/07 09:28:27;;;;;;;;;;;22.10;53.30;;;;;;5076582;28;1004;-39
2022/01/07 09:30:54;;;;;;;;;;;22.10;53.40;;;;;;5075252;28;1903;-39
2022/01/07 09:33:21;;;;;;;;;;;22.00;53.20;;;;;;5076146;28;993;-39
2022/01/07 09:35:50;;;;;;;;;;;22.00;53.20;;;;;;5076277;28;1035;-37
2022/01/07 09:38:17;;;;;;;;;;;22.00;53.20;;;;;;5076898;28;1036;-37
2022/01/07 09:40:45;;;;;;;;;;;22.00;53.30;;;;;;5077035;28;955;-37
2022/01/07 09:43:14;;;;;;;;;;;22.00;53.30;;;;;;5076707;28;1852;-38
2022/01/07 09:45:41;;;;;;;;;;;22.00;53.30;;;;;;5076559;28;1035;-37
2022/01/07 09:48:09;;;;;;;;;;;22.00;53.30;;;;;;5076603;28;944;-37
2022/01/07 09:50:36;;;;;;;;;;;22.00;53.30;;;;;;5076214;28;1989;-39
2022/01/07 09:53:06;;;;;;;;;;;22.00;53.30;;;;;;5076112;28;977;-38
2022/01/07 09:55:33;;;;;;;;;;;22.00;53.30;;;;;;5075339;28;948;-37
2022/01/07 09:58:01;;;;;;;;;;;22.00;53.30;;;;;;5075912;28;956;-38
2022/01/07 10:00:32;;;;;;;;;;;22.00;53.30;;;;;;5075596;28;963;-39
2022/01/07 10:03:00;;;;;;;;;;;22.00;53.30;;;;;;5075242;28;980;-38
2022/01/07 10:05:27;;;;;;;;;;;22.00;53.30;;;;;;5075933;28;921;-38
2022/01/07 10:07:54;;;;;;;;;;;22.00;53.30;;;;;;5075404;28;1031;-37
2022/01/07 10:10:21;;;;;;;;;;;22.00;53.30;;;;;;5075091;28;1980;-38
2022/01/07 10:12:52;;;;;;;;;;;22.00;53.30;;;;;;5076200;28;1011;-37
2022/01/07 10:15:21;;;;;;;;;;;22.00;53.30;;;;;;5076275;28;1003;-38
2022/01/07 10:17:55;;;;;;;;;;;22.00;53.30;;;;;;5076476;28;984;-38
2022/01/07 10:20:23;;;;;;;;;;;22.00;53.40;;;;;;5075028;28;873;-39
2022/01/07 10:22:51;;;;;;;;;;;22.00;53.30;;;;;;5074988;28;984;-40
2022/01/07 10:25:22;;;;;;;;;;;22.00;53.20;;;;;;5076016;28;939;-37
2022/01/07 10:27:49;;;;;;;;;;;22.00;53.30;;;;;;5075537;28;1043;-39
2022/01/07 10:30:17;;;;;;;;;;;22.00;53.30;;;;;;5075865;28;968;-36
2022/01/07 10:32:45;;;;;;;;;;;22.00;53.30;;;;;;5074736;28;1907;-37
2022/01/07 10:35:14;;;;;;;;;;;22.00;53.20;;;;;;5075228;28;976;-38
2022/01/07 10:37:51;;;;;;;;;;;22.00;53.30;;;;;;5075719;28;1289;-37
2022/01/07 10:40:35;;;;;;;;;;;22.00;53.20;;;;;;5075793;28;936;-37
2022/01/07 10:43:09;;;;;;;;;;;21.90;53.20;;;;;;5075381;28;1848;-37
2022/01/07 10:45:36;;;;;;;;;;;21.90;53.20;;;;;;5075542;28;941;-38
2022/01/07 10:48:06;;;;;;;;;;;22.00;53.20;;;;;;5076294;28;952;-38
2022/01/07 10:50:36;;;;;;;;;;;21.90;53.20;;;;;;5076287;28;1922;-37
2022/01/07 10:53:14;;;;;;;;;;;22.00;53.20;;;;;;5076543;28;1003;-37
2022/01/07 10:55:41;;;;;;;;;;;22.00;53.20;;;;;;5076087;28;932;-37
2022/01/07 10:58:08;;;;;;;;;;;21.90;53.20;;;;;;5074664;28;1018;-37
2022/01/07 11:00:37;;;;;;;;;;;21.90;53.10;;;;;;5074286;28;1003;-38
2022/01/07 11:03:09;;;;;;;;;;;21.90;53.10;;;;;;5074868;28;988;-37
2022/01/07 11:05:36;;;;;;;;;;;21.90;53.10;;;;;;5075640;28;936;-37
2022/01/07 11:08:02;;;;;;;;;;;21.90;53.10;;;;;;5075090;28;1018;-37
2022/01/07 11:10:30;;;;;;;;;;;21.90;53.10;;;;;;5075403;28;976;-37
2022/01/07 11:12:58;;;;;;;;;;;21.90;53.10;;;;;;5074080;28;1975;-38
2022/01/07 11:15:24;;;;;;;;;;;21.90;53.10;;;;;;5074899;28;1030;-37
2022/01/07 11:17:51;;;;;;;;;;;21.90;53.10;;;;;;5075168;28;970;-39
2022/01/07 11:20:24;;;;;;;;;;;21.90;53.00;;;;;;5074570;28;976;-38
2022/01/07 11:22:51;;;;;;;;;;;22.00;53.20;;;;;;5075713;28;1013;-38
2022/01/07 11:25:18;;;;;;;;;;;21.90;53.10;;;;;;5072505;28;1015;-37
2022/01/07 11:27:46;;;;;;;;;;;21.90;53.00;;;;;;5073129;28;997;-38
2022/01/07 11:30:15;;;;;;;;;;;21.90;53.00;;;;;;5071549;28;992;-42
2022/01/07 11:32:44;;;;;;;;;;;21.90;53.00;;;;;;5067577;28;1983;-46
2022/01/07 11:35:31;;;;;;;;;;;21.90;53.00;;;;;;5072732;28;916;-44
2022/01/07 11:38:00;;;;;;;;;;;21.90;52.90;;;;;;5067348;28;2033;-45
2022/01/07 11:40:43;;;;;;;;;;;21.90;52.90;;;;;;5069495;28;983;-46
2022/01/07 11:43:25;;;;;;;;;;;21.90;52.90;;;;;;5071554;28;996;-44
2022/01/07 11:45:51;;;;;;;;;;;21.90;52.80;;;;;;5074057;28;1028;-44
2022/01/07 11:48:20;;;;;;;;;;;21.90;52.80;;;;;;5074072;28;1008;-44
2022/01/07 11:50:48;;;;;;;;;;;21.90;52.70;;;;;;5070710;28;1015;-45
2022/01/07 11:53:16;;;;;;;;;;;21.90;52.80;;;;;;5072711;28;977;-45
2022/01/07 11:55:43;;;;;;;;;;;21.90;52.80;;;;;;5074470;28;893;-45
2022/01/07 11:58:11;;;;;;;;;;;21.90;52.80;;;;;;5074868;28;979;-40
2022/01/07 12:00:51;;;;;;;;;;;21.90;52.60;;;;;;5073162;28;998;-40
2022/01/07 12:03:31;;;;;;;;;;;21.90;52.60;;;;;;5076974;28;980;-43
2022/01/07 12:05:58;;;;;;;;;;;21.90;52.60;;;;;;5078210;28;1056;-40
2022/01/07 12:08:38;;;;;;;;;;;21.90;52.70;;;;;;5077798;28;968;-42
2022/01/07 12:11:09;;;;;;;;;;;21.80;52.70;;;;;;5078096;28;1983;-42
2022/01/07 12:13:37;;;;;;;;;;;21.80;52.70;;;;;;5072889;28;1013;-41
2022/01/07 12:16:03;;;;;;;;;;;21.90;52.70;;;;;;5075514;28;1015;-41
2022/01/07 12:18:32;;;;;;;;;;;21.80;52.60;;;;;;5074279;28;967;-40
2022/01/07 12:20:59;;;;;;;;;;;21.80;52.70;;;;;;5076855;28;972;-42
2022/01/07 12:23:26;;;;;;;;;;;21.80;52.70;;;;;;5077169;28;956;-42
2022/01/07 12:25:55;;;;;;;;;;;21.80;52.60;;;;;;5077666;28;976;-42
2022/01/07 12:28:22;;;;;;;;;;;21.80;52.60;;;;;;5076526;28;1032;-44
2022/01/07 12:30:50;;;;;;;;;;;21.80;52.70;;;;;;5077690;28;967;-42
2022/01/07 12:33:17;;;;;;;;;;;21.80;52.60;;;;;;5077193;28;1984;-40
2022/01/07 12:35:44;;;;;;;;;;;21.80;52.60;;;;;;5077934;28;944;-40
2022/01/07 12:38:11;;;;;;;;;;;21.80;52.60;;;;;;5076857;28;1272;-41
2022/01/07 12:40:38;;;;;;;;;;;21.80;52.60;;;;;;5076538;28;960;-43
2022/01/07 12:43:06;;;;;;;;;;;21.80;52.70;;;;;;5076593;28;975;-42
2022/01/07 12:45:33;;;;;;;;;;;21.80;52.70;;;;;;5076979;28;988;-40
2022/01/07 12:47:59;;;;;;;;;;;21.80;52.60;;;;;;5076862;28;1003;-44
2022/01/07 12:50:29;;;;;;;;;;;21.80;52.70;;;;;;5076353;28;997;-42
2022/01/07 12:52:56;;;;;;;;;;;21.80;52.70;;;;;;5078369;28;1971;-43
2022/01/07 12:55:24;;;;;;;;;;;21.80;52.70;;;;;;5077855;28;1762;-39
2022/01/07 12:57:51;;;;;;;;;;;21.80;52.70;;;;;;5076959;28;1007;-44
2022/01/07 13:00:21;;;;;;;;;;;21.80;52.80;;;;;;5077020;28;956;-39
2022/01/07 13:02:49;;;;;;;;;;;21.80;52.70;;;;;;5076582;28;995;-39
2022/01/07 13:05:20;;;;;;;;;;;21.80;52.80;;;;;;5077364;28;1003;-42
2022/01/07 13:07:47;;;;;;;;;;;21.80;52.70;;;;;;5077686;28;1028;-40
2022/01/07 13:10:17;;;;;;;;;;;21.80;52.60;;;;;;5076922;28;960;-40
2022/01/07 13:12:52;;;;;;;;;;;21.80;52.70;;;;;;5076129;28;1902;-41
2022/01/07 13:15:33;;;;;;;;;;;21.80;52.70;;;;;;5076953;28;873;-43
2022/01/07 13:18:13;;;;;;;;;;;21.80;52.70;;;;;;5076133;28;995;-45
2022/01/07 13:20:40;;;;;;;;;;;21.80;52.70;;;;;;5076673;28;900;-45
2022/01/07 13:23:07;;;;;;;;;;;21.80;52.60;;;;;;5077400;28;1465;-45
2022/01/07 13:25:34;;;;;;;;;;;21.80;52.60;;;;;;5075762;28;1008;-43
2022/01/07 13:28:01;;;;;;;;;;;21.80;52.60;;;;;;5076100;28;968;-45
2022/01/07 13:30:35;;;;;;;;;;;21.80;52.50;;;;;;5074572;28;976;-43
2022/01/07 13:33:05;;;;;;;;;;;21.80;52.60;;;;;;5075663;28;1984;-46
2022/01/07 13:35:32;;;;;;;;;;;21.80;52.60;;;;;;5075543;28;1019;-45
2022/01/07 13:37:59;;;;;;;;;;;21.70;52.60;;;;;;5074444;28;1052;-46
2022/01/07 13:40:28;;;;;;;;;;;21.70;52.60;;;;;;5074721;28;996;-43
2022/01/07 13:43:05;;;;;;;;;;;21.70;52.60;;;;;;5075943;28;1096;-45
2022/01/07 13:45:33;;;;;;;;;;;21.70;52.60;;;;;;5076542;28;939;-44
2022/01/07 13:48:10;;;;;;;;;;;21.70;52.60;;;;;;5077165;28;1023;-44
2022/01/07 13:50:44;;;;;;;;;;;21.70;52.70;;;;;;5077066;28;909;-43
2022/01/07 13:53:15;;;;;;;;;;;21.70;52.60;;;;;;5076762;28;1918;-39
2022/01/07 13:55:42;;;;;;;;;;;21.70;52.60;;;;;;5074598;28;933;-41
2022/01/07 13:58:10;;;;;;;;;;;21.70;52.60;;;;;;5076437;28;1020;-39
2022/01/07 14:00:38;;;;;;;;;;;21.70;52.50;;;;;;5076889;28;979;-39
2022/01/07 14:03:06;;;;;;;;;;;21.70;52.50;;;;;;5075619;28;1022;-39
2022/01/07 14:05:34;;;;;;;;;;;21.70;52.50;;;;;;5075274;28;1020;-40
2022/01/07 14:08:01;;;;;;;;;;;21.70;52.50;;;;;;5075855;28;1009;-39
2022/01/07 14:10:30;;;;;;;;;;;21.70;52.50;;;;;;5075646;28;964;-38
2022/01/07 14:12:57;;;;;;;;;;;21.70;52.40;;;;;;5076161;28;1984;-39
2022/01/07 14:15:26;;;;;;;;;;;21.70;52.40;;;;;;5075193;28;935;-44
2022/01/07 14:18:03;;;;;;;;;;;21.70;52.30;;;;;;5074531;28;995;-46
2022/01/07 14:20:39;;;;;;;;;;;21.70;52.40;;;;;;5074757;28;1019;-41
2022/01/07 14:23:06;;;;;;;;;;;21.70;52.40;;;;;;5076066;28;915;-41
2022/01/07 14:25:33;;;;;;;;;;;21.60;52.40;;;;;;5075318;28;951;-38
2022/01/07 14:27:59;;;;;;;;;;;21.60;52.40;;;;;;5076238;28;952;-39
2022/01/07 14:30:26;;;;;;;;;;;21.60;52.30;;;;;;5075359;28;1008;-42
2022/01/07 14:32:53;;;;;;;;;;;21.60;52.40;;;;;;5075139;28;1980;-38
2022/01/07 14:35:20;;;;;;;;;;;21.60;52.40;;;;;;5076074;28;1800;-39
2022/01/07 14:37:48;;;;;;;;;;;21.60;52.30;;;;;;5075599;28;1854;-40
2022/01/07 14:40:14;;;;;;;;;;;21.60;52.40;;;;;;5076293;28;996;-38
2022/01/07 14:42:42;;;;;;;;;;;21.60;52.40;;;;;;5075730;28;1020;-40
2022/01/07 14:45:11;;;;;;;;;;;21.60;52.40;;;;;;5075754;28;983;-39
2022/01/07 14:47:37;;;;;;;;;;;21.60;52.50;;;;;;5073621;28;1073;-38
2022/01/07 14:50:05;;;;;;;;;;;21.60;52.50;;;;;;5076297;28;1075;-39
2022/01/07 14:52:32;;;;;;;;;;;21.60;52.60;;;;;;5075143;28;1902;-39